Airfield :
LOGIN :

Register | Disclaimer

   EN    FR    IT 

 










Legend :    VFR   Marginal VFR   IFR   Intensive IFR   Very Intensive IFR
Visi :
Ceiling :
>= 8 km
>= 3000ft
5 to 8 km
1000 to 3000 ft
1500m to 5 km
500 to 1000 ft
800 to 1500m
200 to 500 ft
< 800m
< 200 ft
Symbols :   Thunderstorms  Fog  Heavy snow  Heavy precipitations  Wind > 20 kt
SIGMETs :     Misc.  Thunderstorms  Icing  Turbulence  Mountain Waves  Volcanic Ashes






- Airport Elevation : 22 ft
- IATA code : LDY


EGAE - Londonderry Eglington

CURRENT METAR :
  • 041220Z 28013KT 240V320 9999 VCSH FEW015 BKN023 15/11 Q1020

EXPIRED METARs :
  • 041150Z 29015KT 9999 VCSH BKN023 16/11 Q1020
  • 041120Z 29014KT 9999 FEW015 BKN020 16/11 Q1020
  • 041050Z 28018KT 9999 -SHRA FEW014 BKN021 14/11 Q1020
  • 041020Z 30017G28KT 9999 VCSH FEW014 BKN021 14/10 Q1019
  • 040950Z 28020KT 9999 VCSH FEW014 BKN020 14/11 Q1019

TAF TAF EGAE
Valid from the 04 at 12:00 until the 04 at 21:00 UTC


041104Z 0412/0421 27015G25KT 9999 FEW015 BKN025
PROB30
TEMPO 0412/0421 9000 -SHRA



MET'MAP, your aeronautical weather chart ! - Copyright ORBIFLY December 2007 - Disclaimer

ORBIFLY MET'MAP TEAM :

Programming & Development : Alexandra Zaïnal
Original concept : Baudouin d'Aumeries
Technical & hardware support : Manuel Goepfert
Assistance : Marc-Olivier Méhu




SOURCES & CREDITS :

   NOAA